Time;durP1;ratioP1;P1;durP2;ratioP2;P2;SDS_P1;SDS_P2;PMS_P1;PMS_P2;Temp;Humidity;BMP_temperature;BMP_pressure;BME280_temperature;BME280_humidity;BME280_pressure;Samples;Min_cycle;Max_cycle;Signal;HPM_P1;HPM_P2
2021/03/16 00:00:52;;;;;;;2.10;1.80;;;5.60;69.20;;;;;;5036422;28;20223;-86
2021/03/16 00:03:18;;;;;;;8.80;2.47;;;5.60;68.70;;;;;;5025126;28;20214;-86
2021/03/16 00:05:44;;;;;;;2.07;1.97;;;5.50;69.50;;;;;;5028241;28;20613;-85
2021/03/16 00:08:10;;;;;;;3.43;1.80;;;5.50;70.80;;;;;;5023246;28;20246;-85
2021/03/16 00:10:36;;;;;;;2.87;1.97;;;5.60;70.50;;;;;;5027387;28;20283;-85
2021/03/16 00:13:01;;;;;;;4.73;2.27;;;5.60;69.20;;;;;;5025387;28;20238;-85
2021/03/16 00:15:27;;;;;;;6.07;2.40;;;5.60;69.30;;;;;;5025596;28;20187;-85
2021/03/16 00:17:53;;;;;;;2.13;1.97;;;5.60;69.80;;;;;;5020365;28;20203;-85
2021/03/16 00:20:18;;;;;;;3.27;2.23;;;5.60;70.70;;;;;;5019559;28;20242;-84
2021/03/16 00:22:44;;;;;;;4.50;2.13;;;5.60;70.90;;;;;;5022509;28;20211;-85
2021/03/16 00:25:10;;;;;;;4.40;2.67;;;5.70;70.90;;;;;;5028205;28;20224;-85
2021/03/16 00:27:36;;;;;;;2.93;1.57;;;5.70;70.90;;;;;;5027057;28;20235;-85
2021/03/16 00:30:04;;;;;;;6.20;2.57;;;5.60;71.60;;;;;;5020434;28;20223;-85
2021/03/16 00:32:29;;;;;;;2.27;1.90;;;5.60;72.20;;;;;;5023509;28;20224;-84
2021/03/16 00:34:55;;;;;;;2.27;2.00;;;5.50;72.40;;;;;;5023058;28;20223;-84
2021/03/16 00:37:21;;;;;;;3.47;1.63;;;5.50;73.00;;;;;;5027643;28;20683;-84
2021/03/16 00:39:46;;;;;;;3.50;1.90;;;5.50;72.60;;;;;;5022302;28;20620;-85
2021/03/16 00:42:12;;;;;;;1.23;1.20;;;5.60;72.80;;;;;;5025501;28;20194;-85
2021/03/16 00:44:38;;;;;;;3.90;1.90;;;5.50;72.30;;;;;;5024681;28;20230;-85
2021/03/16 00:47:03;;;;;;;2.97;1.93;;;5.60;72.70;;;;;;5023886;28;20188;-84
2021/03/16 00:49:29;;;;;;;4.77;1.73;;;5.40;71.90;;;;;;5026877;28;20238;-84
2021/03/16 00:51:58;;;;;;;1.80;1.40;;;5.50;72.50;;;;;;5024075;28;20262;-84
2021/03/16 00:54:24;;;;;;;2.33;1.40;;;5.40;72.80;;;;;;5024455;28;20280;-86
2021/03/16 00:56:49;;;;;;;4.83;1.90;;;5.50;73.70;;;;;;5042023;28;20187;-85
2021/03/16 00:59:15;;;;;;;3.10;2.13;;;5.30;73.80;;;;;;5039132;28;20197;-85
2021/03/16 01:01:41;;;;;;;1.40;1.30;;;5.30;74.00;;;;;;5024191;28;20250;-85
2021/03/16 01:04:06;;;;;;;3.40;1.67;;;5.20;74.10;;;;;;5042262;28;20217;-85
2021/03/16 01:06:32;;;;;;;3.00;2.20;;;5.30;74.60;;;;;;5019991;28;20184;-85
2021/03/16 01:08:58;;;;;;;4.90;2.10;;;5.20;74.90;;;;;;5024270;28;20223;-85
2021/03/16 01:11:24;;;;;;;2.13;1.30;;;5.20;74.70;;;;;;5040387;28;20188;-85
2021/03/16 01:13:49;;;;;;;2.53;1.43;;;5.10;74.90;;;;;;5025906;28;20245;-85
2021/03/16 01:16:15;;;;;;;2.50;1.93;;;5.10;74.60;;;;;;5024455;28;20256;-85
2021/03/16 01:18:41;;;;;;;4.60;2.00;;;5.10;75.00;;;;;;5027842;28;20257;-85
2021/03/16 01:21:08;;;;;;;6.60;2.07;;;5.10;75.40;;;;;;5040235;28;20201;-85
2021/03/16 01:23:34;;;;;;;5.57;2.17;;;5.10;75.10;;;;;;5039648;28;20251;-85
2021/03/16 01:26:00;;;;;;;2.17;1.43;;;5.20;75.70;;;;;;5039610;28;20320;-85
2021/03/16 01:28:26;;;;;;;2.70;1.43;;;5.00;75.50;;;;;;5022939;28;20225;-85
2021/03/16 01:30:51;;;;;;;8.53;2.73;;;4.90;76.10;;;;;;5042310;28;20288;-85
2021/03/16 01:33:17;;;;;;;5.17;1.37;;;5.00;75.20;;;;;;5041079;28;20227;-85
2021/03/16 01:35:43;;;;;;;1.57;1.33;;;5.00;75.60;;;;;;5028694;28;20196;-85
2021/03/16 01:38:08;;;;;;;2.43;1.40;;;5.00;75.80;;;;;;5041295;28;20223;-85
2021/03/16 01:40:39;;;;;;;5.47;1.80;;;5.00;75.40;;;;;;5027341;28;20220;-85
2021/03/16 01:43:30;;;;;;;1.27;1.17;;;5.00;75.40;;;;;;5039985;28;20220;-85
2021/03/16 01:45:56;;;;;;;5.07;2.27;;;5.00;74.50;;;;;;5018221;28;20188;-85
2021/03/16 01:48:34;;;;;;;5.13;1.47;;;5.00;74.30;;;;;;5028252;28;20215;-85
2021/03/16 01:51:19;;;;;;;2.73;1.30;;;5.00;74.00;;;;;;5023700;28;20207;-85
2021/03/16 01:53:44;;;;;;;1.70;1.43;;;5.00;72.30;;;;;;5037342;28;20180;-86
2021/03/16 01:56:12;;;;;;;4.37;1.53;;;5.00;72.50;;;;;;5032608;28;20226;-85
2021/03/16 01:58:40;;;;;;;4.07;1.43;;;5.10;72.90;;;;;;5037202;28;20235;-85
2021/03/16 02:01:06;;;;;;;5.17;1.60;;;5.10;72.70;;;;;;5028179;28;20187;-85
2021/03/16 02:03:31;;;;;;;6.43;1.67;;;5.10;71.60;;;;;;5029834;28;20208;-85
2021/03/16 02:05:58;;;;;;;4.63;2.03;;;5.20;71.30;;;;;;5024472;28;20195;-85
2021/03/16 02:08:23;;;;;;;1.97;1.30;;;5.20;71.20;;;;;;5038273;28;20227;-85
2021/03/16 02:11:08;;;;;;;2.23;1.60;;;5.30;71.00;;;;;;5023541;28;20219;-85
2021/03/16 02:13:41;;;;;;;3.60;1.50;;;5.30;71.50;;;;;;5021722;28;20226;-86
2021/03/16 02:16:19;;;;;;;2.73;1.37;;;5.20;71.40;;;;;;5022648;28;20223;-86
2021/03/16 02:18:49;;;;;;;1.80;1.33;;;5.20;72.60;;;;;;5038433;28;20255;-85
2021/03/16 02:21:25;;;;;;;5.70;1.30;;;5.20;72.80;;;;;;5021539;28;20234;-85
2021/03/16 02:24:08;;;;;;;2.83;1.50;;;5.20;72.20;;;;;;5038636;28;20188;-86
2021/03/16 02:26:48;;;;;;;2.90;1.43;;;5.20;73.10;;;;;;5038088;28;20215;-85
2021/03/16 02:29:26;;;;;;;11.23;1.37;;;5.10;73.20;;;;;;5022300;28;20254;-84
2021/03/16 02:31:55;;;;;;;4.50;1.60;;;5.10;73.00;;;;;;5008141;28;20216;-84
2021/03/16 02:34:22;;;;;;;1.50;1.40;;;5.20;72.90;;;;;;5022840;28;20198;-85
2021/03/16 02:36:49;;;;;;;2.00;1.17;;;5.10;72.20;;;;;;5038268;28;20227;-85
2021/03/16 02:39:16;;;;;;;2.27;1.80;;;5.10;72.80;;;;;;5019746;28;20257;-85
2021/03/16 02:41:46;;;;;;;6.70;1.33;;;5.10;73.10;;;;;;5037524;28;20196;-85
2021/03/16 02:44:12;;;;;;;4.90;1.47;;;5.10;73.80;;;;;;5039957;28;20231;-85
2021/03/16 02:46:43;;;;;;;1.47;1.40;;;5.10;73.00;;;;;;5021124;28;20699;-85
2021/03/16 02:49:15;;;;;;;1.60;1.47;;;5.10;72.50;;;;;;5038158;28;20246;-85
2021/03/16 02:51:42;;;;;;;3.10;1.50;;;5.20;70.20;;;;;;5037775;28;20187;-85
2021/03/16 02:54:08;;;;;;;1.47;1.37;;;5.20;70.70;;;;;;5023012;28;20558;-85
2021/03/16 02:56:35;;;;;;;2.93;1.83;;;5.20;70.20;;;;;;5023532;28;20230;-85
2021/03/16 02:59:03;;;;;;;1.33;1.23;;;5.20;69.60;;;;;;5018975;28;20218;-85
2021/03/16 03:01:34;;;;;;;5.50;1.23;;;5.10;69.70;;;;;;5040155;28;20270;-85
2021/03/16 03:04:01;;;;;;;1.17;1.03;;;5.30;68.10;;;;;;5024949;28;20234;-85
2021/03/16 03:06:28;;;;;;;3.87;1.47;;;5.30;67.80;;;;;;5024943;28;20584;-85
2021/03/16 03:08:54;;;;;;;3.10;1.53;;;5.50;68.70;;;;;;5037925;28;20693;-86
2021/03/16 03:11:20;;;;;;;2.20;1.20;;;5.40;69.00;;;;;;5023303;28;20211;-85
2021/03/16 03:13:45;;;;;;;1.63;1.07;;;5.20;68.90;;;;;;5031606;28;20209;-85
2021/03/16 03:16:11;;;;;;;0.93;0.93;;;5.20;68.90;;;;;;5042091;28;20224;-85
2021/03/16 03:18:37;;;;;;;2.20;1.40;;;5.10;68.80;;;;;;5024392;28;20238;-85
2021/03/16 03:21:18;;;;;;;3.23;1.50;;;5.10;68.80;;;;;;5026781;28;20214;-85
2021/03/16 03:23:48;;;;;;;3.30;1.53;;;5.10;68.80;;;;;;5020776;28;20251;-85
2021/03/16 03:26:42;;;;;;;3.33;1.40;;;5.10;69.90;;;;;;5020422;28;20706;-85
2021/03/16 03:29:12;;;;;;;2.17;1.33;;;5.10;69.60;;;;;;5035936;28;20235;-85
2021/03/16 03:31:47;;;;;;;1.40;1.37;;;5.20;69.30;;;;;;5024011;28;20278;-85
2021/03/16 03:34:17;;;;;;;1.57;1.10;;;5.20;69.60;;;;;;5037417;28;20246;-85
2021/03/16 03:36:43;;;;;;;3.83;1.30;;;5.20;70.10;;;;;;5017507;28;20234;-85
2021/03/16 03:39:10;;;;;;;0.77;0.77;;;5.10;69.90;;;;;;5026495;28;20583;-86
2021/03/16 03:41:37;;;;;;;1.77;1.43;;;5.30;70.60;;;;;;5019217;28;20224;-90
2021/03/16 03:44:06;;;;;;;3.80;1.93;;;5.10;70.50;;;;;;5012590;28;20200;-88
2021/03/16 03:46:34;;;;;;;3.73;1.47;;;5.10;70.70;;;;;;5014500;28;20212;-88
2021/03/16 03:49:03;;;;;;;2.80;1.10;;;5.10;71.30;;;;;;5014651;28;20228;-88
2021/03/16 03:51:30;;;;;;;4.03;1.67;;;5.10;71.60;;;;;;5035303;28;20283;-86
2021/03/16 03:54:00;;;;;;;5.30;2.13;;;5.10;71.30;;;;;;5041300;28;20198;-86
2021/03/16 03:56:27;;;;;;;3.40;1.70;;;5.10;71.50;;;;;;5020028;28;20224;-86
2021/03/16 03:58:53;;;;;;;6.30;1.77;;;5.10;72.00;;;;;;5019065;28;20224;-87
2021/03/16 04:01:19;;;;;;;3.97;2.00;;;5.10;72.80;;;;;;5017910;28;20663;-86
2021/03/16 04:03:45;;;;;;;5.00;2.33;;;5.10;73.50;;;;;;5019238;28;20234;-86
2021/03/16 04:06:12;;;;;;;0.80;0.80;;;5.00;74.00;;;;;;5017851;28;20248;-87
2021/03/16 04:08:39;;;;;;;4.67;2.20;;;5.00;73.60;;;;;;5034719;28;20230;-86
2021/03/16 04:11:05;;;;;;;4.90;1.43;;;5.10;73.90;;;;;;5014111;28;20242;-87
2021/03/16 04:13:32;;;;;;;4.37;2.17;;;5.00;74.00;;;;;;5033849;28;20188;-87
2021/03/16 04:16:00;;;;;;;3.77;1.57;;;5.00;73.30;;;;;;5019498;28;20279;-87
2021/03/16 04:18:26;;;;;;;2.40;1.97;;;;;;;;;;5022470;28;20188;-87
2021/03/16 04:20:52;;;;;;;2.83;1.83;;;5.10;73.50;;;;;;5030817;28;20198;-87
2021/03/16 04:23:18;;;;;;;0.40;0.40;;;5.10;73.30;;;;;;5018819;28;20317;-87
2021/03/16 04:25:44;;;;;;;6.17;1.53;;;5.10;73.50;;;;;;5022154;28;20726;-87
2021/03/16 04:28:09;;;;;;;3.30;1.67;;;5.10;74.00;;;;;;5024639;28;20231;-87
2021/03/16 04:30:35;;;;;;;3.37;2.50;;;5.00;74.30;;;;;;5029385;28;20184;-87
2021/03/16 04:33:01;;;;;;;3.10;1.70;;;5.00;74.50;;;;;;5018849;28;20199;-87
2021/03/16 04:35:27;;;;;;;0.53;0.53;;;4.90;75.00;;;;;;5022346;28;20187;-86
2021/03/16 04:37:53;;;;;;;2.80;2.33;;;4.90;75.10;;;;;;5033399;28;20219;-88
2021/03/16 04:40:20;;;;;;;4.67;1.43;;;5.00;74.50;;;;;;5023039;28;20236;-87
2021/03/16 04:42:46;;;;;;;6.03;2.80;;;5.00;74.30;;;;;;5031373;28;20216;-87
2021/03/16 04:45:12;;;;;;;5.10;2.60;;;5.00;73.60;;;;;;5021703;28;20242;-87
2021/03/16 04:47:38;;;;;;;2.80;2.20;;;5.00;74.20;;;;;;5019843;28;20223;-87
2021/03/16 04:50:04;;;;;;;4.30;2.33;;;5.00;73.00;;;;;;5037030;28;20227;-87
2021/03/16 04:52:30;;;;;;;2.03;1.63;;;5.00;73.50;;;;;;5032704;28;20189;-87
2021/03/16 04:54:55;;;;;;;3.13;2.40;;;5.00;74.10;;;;;;5027858;28;20223;-87
2021/03/16 04:57:21;;;;;;;5.40;2.27;;;5.00;74.50;;;;;;5036615;28;20184;-87
2021/03/16 04:59:46;;;;;;;2.37;2.07;;;4.90;74.70;;;;;;5025180;28;20195;-87
2021/03/16 05:02:13;;;;;;;4.07;2.17;;;4.90;75.00;;;;;;5020690;28;20228;-87
2021/03/16 05:04:39;;;;;;;3.13;2.43;;;4.90;74.40;;;;;;5039097;28;20310;-87
2021/03/16 05:07:05;;;;;;;5.00;2.50;;;5.00;74.80;;;;;;5035849;28;20734;-87
2021/03/16 05:09:31;;;;;;;4.83;2.90;;;5.00;74.40;;;;;;5016238;28;20231;-87
2021/03/16 05:11:56;;;;;;;2.67;1.90;;;5.00;74.30;;;;;;5019615;28;20195;-87
2021/03/16 05:14:22;;;;;;;4.23;2.30;;;5.30;74.80;;;;;;5018380;28;20315;-86
2021/03/16 05:16:48;;;;;;;6.30;2.20;;;5.10;74.30;;;;;;5019811;28;20192;-87
2021/03/16 05:19:13;;;;;;;3.80;2.30;;;5.10;73.90;;;;;;5019328;28;20250;-87
2021/03/16 05:21:40;;;;;;;4.27;2.67;;;5.10;73.70;;;;;;5036109;28;20222;-87
2021/03/16 05:24:06;;;;;;;3.37;2.20;;;5.00;73.60;;;;;;5036576;28;20188;-87
2021/03/16 05:26:32;;;;;;;4.67;2.60;;;5.00;74.80;;;;;;5022644;28;20231;-87
2021/03/16 05:28:58;;;;;;;10.10;2.90;;;;;;;;;;5036191;28;20211;-87
2021/03/16 05:31:24;;;;;;;2.33;2.13;;;5.00;73.80;;;;;;5035127;28;20212;-87
2021/03/16 05:33:50;;;;;;;4.30;2.00;;;5.00;73.70;;;;;;5034881;28;20220;-86
2021/03/16 05:36:15;;;;;;;3.37;2.20;;;5.10;72.80;;;;;;5020516;28;20223;-88
2021/03/16 05:38:41;;;;;;;3.90;1.83;;;5.10;73.30;;;;;;5034495;28;20189;-88
2021/03/16 05:41:09;;;;;;;5.47;2.73;;;5.10;72.20;;;;;;5020092;28;20199;-87
2021/03/16 05:43:35;;;;;;;6.97;2.23;;;5.10;71.90;;;;;;5021190;28;20223;-88
2021/03/16 05:46:02;;;;;;;3.67;1.90;;;5.10;71.90;;;;;;5035444;28;20211;-87
2021/03/16 05:48:29;;;;;;;3.17;2.13;;;5.80;72.80;;;;;;5018758;28;20295;-87
2021/03/16 05:50:58;;;;;;;4.47;2.10;;;5.10;72.20;;;;;;5036937;28;20184;-87
2021/03/16 05:53:25;;;;;;;3.23;1.43;;;5.10;72.00;;;;;;5020690;28;20274;-87
2021/03/16 05:55:50;;;;;;;3.63;2.33;;;5.10;71.60;;;;;;5020690;28;20275;-87
2021/03/16 05:58:16;;;;;;;2.50;1.60;;;5.20;70.90;;;;;;5027052;28;20226;-87
2021/03/16 06:00:42;;;;;;;6.80;1.80;;;5.20;70.60;;;;;;5021850;28;20224;-88
2021/03/16 06:03:08;;;;;;;4.67;1.90;;;5.20;70.50;;;;;;5021796;28;20557;-87
2021/03/16 06:05:34;;;;;;;2.57;1.40;;;5.20;71.30;;;;;;5018532;28;20235;-88
2021/03/16 06:08:00;;;;;;;2.00;1.37;;;5.20;71.10;;;;;;5033922;28;20197;-87
2021/03/16 06:10:26;;;;;;;3.13;1.50;;;5.20;71.10;;;;;;5021728;28;20346;-88
2021/03/16 06:12:52;;;;;;;6.60;1.97;;;5.20;70.20;;;;;;5023269;28;20294;-87
2021/03/16 06:15:19;;;;;;;2.73;1.50;;;5.30;68.90;;;;;;5022233;28;20183;-87
2021/03/16 06:17:51;;;;;;;4.50;1.70;;;5.40;69.00;;;;;;5038068;28;20199;-87
2021/03/16 06:20:35;;;;;;;2.53;1.40;;;5.40;68.50;;;;;;5027065;28;20358;-87
2021/03/16 06:23:11;;;;;;;5.57;2.00;;;5.40;68.20;;;;;;5020924;28;20207;-87
2021/03/16 06:25:39;;;;;;;2.83;1.90;;;5.40;69.00;;;;;;5021302;28;20215;-87
2021/03/16 06:28:09;;;;;;;2.97;1.70;;;5.40;69.10;;;;;;5017762;28;20651;-88
2021/03/16 06:30:36;;;;;;;4.27;1.70;;;5.50;69.10;;;;;;5019582;28;20195;-87
2021/03/16 06:33:03;;;;;;;1.97;1.60;;;5.50;69.10;;;;;;5018996;28;20195;-88
2021/03/16 06:35:29;;;;;;;2.77;1.73;;;5.60;69.20;;;;;;5016414;28;20212;-87
2021/03/16 06:38:10;;;;;;;5.50;1.73;;;5.70;68.60;;;;;;5027427;28;20243;-87
2021/03/16 06:40:36;;;;;;;1.97;1.60;;;5.70;67.50;;;;;;5034641;28;20216;-87
2021/03/16 06:43:10;;;;;;;6.57;2.17;;;5.70;67.40;;;;;;5038861;28;20285;-87
2021/03/16 06:45:41;;;;;;;4.13;1.43;;;5.60;67.80;;;;;;5029420;28;20635;-88
2021/03/16 06:48:23;;;;;;;2.60;1.80;;;5.70;67.80;;;;;;5019388;28;20218;-87
2021/03/16 06:50:51;;;;;;;6.77;1.60;;;5.80;67.90;;;;;;5001947;28;20222;-87
2021/03/16 06:53:19;;;;;;;5.00;2.00;;;5.80;68.00;;;;;;5036646;28;20660;-87
2021/03/16 06:55:56;;;;;;;3.67;2.20;;;5.80;67.90;;;;;;5036834;28;20240;-87
2021/03/16 06:58:26;;;;;;;7.77;3.10;;;5.80;68.10;;;;;;5021168;28;20261;-87
2021/03/16 07:01:16;;;;;;;2.20;1.90;;;5.80;68.40;;;;;;5018067;28;20228;-87
2021/03/16 07:03:43;;;;;;;5.70;2.70;;;5.90;67.70;;;;;;5032747;28;20214;-87
2021/03/16 07:06:13;;;;;;;3.20;2.80;;;5.90;68.10;;;;;;5033290;28;20188;-87
2021/03/16 07:08:40;;;;;;;4.10;2.57;;;5.90;68.50;;;;;;5021806;28;20219;-87
2021/03/16 07:11:09;;;;;;;5.23;2.57;;;5.90;66.70;;;;;;5017131;28;20226;-87
2021/03/16 07:13:35;;;;;;;5.67;2.10;;;5.80;67.30;;;;;;5019190;28;20215;-86
2021/03/16 07:16:02;;;;;;;3.00;1.90;;;5.90;67.40;;;;;;5015627;28;20206;-86
2021/03/16 07:18:31;;;;;;;4.80;2.30;;;6.00;67.20;;;;;;5025066;28;20200;-86
2021/03/16 07:21:01;;;;;;;3.40;1.87;;;6.10;66.90;;;;;;5019523;28;20223;-86
2021/03/16 07:23:28;;;;;;;3.20;1.90;;;6.10;67.50;;;;;;5038536;28;20262;-86
2021/03/16 07:25:55;;;;;;;5.20;3.03;;;6.10;68.00;;;;;;5019122;28;20192;-86
2021/03/16 07:28:22;;;;;;;4.50;1.77;;;6.10;66.70;;;;;;5021942;28;20223;-85
2021/03/16 07:30:49;;;;;;;3.80;1.90;;;6.10;65.40;;;;;;5029270;28;20197;-81
2021/03/16 07:33:15;;;;;;;4.43;2.20;;;6.10;66.10;;;;;;5027024;28;20202;-82
2021/03/16 07:35:41;;;;;;;3.97;2.63;;;6.10;66.20;;;;;;5023187;28;20188;-82
2021/03/16 07:38:09;;;;;;;2.27;1.83;;;6.10;66.10;;;;;;5046085;28;20246;-82
2021/03/16 07:40:39;;;;;;;3.10;2.03;;;6.10;66.20;;;;;;5028407;28;20267;-85
2021/03/16 07:43:09;;;;;;;4.13;1.93;;;6.30;66.60;;;;;;5027783;28;20211;-84
2021/03/16 07:45:35;;;;;;;2.77;2.00;;;6.40;65.60;;;;;;5029310;28;20221;-83
2021/03/16 07:48:11;;;;;;;4.33;2.10;;;6.50;64.90;;;;;;5027000;28;20267;-83
2021/03/16 07:50:37;;;;;;;3.53;2.03;;;6.50;65.50;;;;;;5030516;28;20246;-83
2021/03/16 07:53:03;;;;;;;2.23;1.70;;;6.60;64.60;;;;;;5025541;28;20216;-83
2021/03/16 07:55:30;;;;;;;3.20;2.13;;;6.60;65.30;;;;;;5026583;28;20215;-82
2021/03/16 07:58:13;;;;;;;3.90;2.43;;;6.60;65.50;;;;;;5043109;28;20200;-83
2021/03/16 08:00:39;;;;;;;4.70;2.53;;;6.60;65.20;;;;;;5039699;28;20203;-82
2021/03/16 08:03:06;;;;;;;3.87;1.60;;;6.60;64.40;;;;;;5045232;28;20239;-83
2021/03/16 08:05:43;;;;;;;2.43;1.63;;;6.60;65.10;;;;;;5025417;28;20189;-82
2021/03/16 08:08:13;;;;;;;7.37;2.20;;;6.60;64.90;;;;;;5006713;28;20242;-83
2021/03/16 08:10:39;;;;;;;4.03;2.17;;;6.70;63.40;;;;;;5043081;28;20322;-83
2021/03/16 08:13:05;;;;;;;4.77;1.47;;;6.60;64.00;;;;;;5004625;28;20213;-82
2021/03/16 08:15:50;;;;;;;1.63;1.43;;;6.70;62.60;;;;;;5044462;28;20192;-83
2021/03/16 08:18:30;;;;;;;3.30;1.90;;;6.70;61.80;;;;;;5042249;28;20260;-83
2021/03/16 08:21:13;;;;;;;3.27;1.83;;;6.90;62.20;;;;;;5022182;28;20186;-83
2021/03/16 08:23:39;;;;;;;5.57;2.50;;;7.10;61.90;;;;;;5023464;28;20219;-83
2021/03/16 08:26:07;;;;;;;4.63;2.40;;;7.20;62.00;;;;;;5038710;28;20288;-84
2021/03/16 08:28:34;;;;;;;5.33;2.77;;;7.20;62.00;;;;;;5043305;28;20566;-84
2021/03/16 08:31:01;;;;;;;10.40;2.70;;;7.20;61.30;;;;;;5026135;28;20268;-84
2021/03/16 08:33:29;;;;;;;4.80;2.73;;;7.20;62.00;;;;;;5042339;28;20234;-83
2021/03/16 08:35:56;;;;;;;2.80;2.30;;;7.20;62.00;;;;;;5042553;28;20168;-83
2021/03/16 08:38:28;;;;;;;5.00;2.13;;;7.20;62.00;;;;;;5040064;28;20283;-83
2021/03/16 08:41:05;;;;;;;3.57;1.90;;;7.10;63.70;;;;;;5039203;28;20541;-83
2021/03/16 08:43:31;;;;;;;2.33;2.17;;;7.00;63.90;;;;;;5038508;28;20221;-83
2021/03/16 08:45:57;;;;;;;5.77;2.63;;;;;;;;;;5023736;28;20914;-83
2021/03/16 08:48:28;;;;;;;3.43;2.20;;;6.80;65.00;;;;;;5043199;28;20211;-82
2021/03/16 08:50:54;;;;;;;4.83;2.23;;;6.80;65.80;;;;;;5024177;28;20263;-84
2021/03/16 08:53:20;;;;;;;3.10;2.33;;;6.90;66.20;;;;;;5022986;28;20189;-84
2021/03/16 08:55:52;;;;;;;2.53;2.00;;;6.90;66.20;;;;;;5039780;28;20208;-84
2021/03/16 08:58:20;;;;;;;2.70;1.23;;;7.00;64.40;;;;;;5040220;28;20239;-85
2021/03/16 09:00:46;;;;;;;1.73;1.63;;;7.10;61.90;;;;;;5011271;28;20196;-84
2021/03/16 09:03:12;;;;;;;2.87;2.17;;;7.10;61.40;;;;;;5028763;28;20274;-84
2021/03/16 09:05:40;;;;;;;4.17;2.23;;;7.20;62.00;;;;;;5026649;28;20314;-86
2021/03/16 09:08:07;;;;;;;2.43;2.10;;;7.20;60.90;;;;;;5043353;28;20255;-84
2021/03/16 09:10:33;;;;;;;4.20;2.20;;;7.30;60.90;;;;;;5033821;28;20199;-86
2021/03/16 09:13:01;;;;;;;2.43;2.23;;;7.20;60.00;;;;;;5025672;28;20220;-85
2021/03/16 09:15:33;;;;;;;2.83;2.10;;;7.10;59.30;;;;;;5023600;28;20203;-85
2021/03/16 09:18:01;;;;;;;1.77;1.37;;;7.10;59.00;;;;;;5039191;28;20189;-83
2021/03/16 09:20:39;;;;;;;6.07;2.27;;;7.20;59.90;;;;;;5023669;28;20203;-83
2021/03/16 09:23:06;;;;;;;5.00;3.57;;;7.20;58.00;;;;;;5043094;28;20701;-83
2021/03/16 09:25:34;;;;;;;1.67;1.53;;;7.40;57.00;;;;;;5024608;28;20223;-83
2021/03/16 09:28:01;;;;;;;2.77;1.90;;;7.50;55.60;;;;;;5002477;28;20246;-83
2021/03/16 09:30:33;;;;;;;1.60;1.50;;;7.70;56.30;;;;;;5027621;28;20228;-84
2021/03/16 09:33:00;;;;;;;1.43;1.33;;;8.10;54.30;;;;;;5009447;28;20214;-84
2021/03/16 09:35:26;;;;;;;3.80;1.50;;;8.50;53.20;;;;;;5005079;28;20220;-84
2021/03/16 09:37:53;;;;;;;7.00;2.17;;;8.80;52.20;;;;;;5008186;28;20218;-85
2021/03/16 09:40:45;;;;;;;2.43;1.40;;;8.90;50.60;;;;;;5003223;28;20219;-83
2021/03/16 09:43:28;;;;;;;1.17;1.17;;;8.70;49.50;;;;;;5001433;28;20632;-84
2021/03/16 09:46:02;;;;;;;3.60;1.83;;;8.60;48.80;;;;;;5010582;28;20250;-85
2021/03/16 09:48:28;;;;;;;1.20;1.10;;;8.40;49.60;;;;;;5024982;28;20219;-86
2021/03/16 09:50:56;;;;;;;1.37;0.93;;;8.30;49.90;;;;;;5022782;28;20207;-84
2021/03/16 09:53:22;;;;;;;4.00;1.63;;;8.60;49.90;;;;;;5024062;28;20278;-83
2021/03/16 09:55:59;;;;;;;2.60;1.33;;;8.50;50.80;;;;;;5001252;28;20292;-84
2021/03/16 09:58:27;;;;;;;2.23;1.63;;;8.60;52.30;;;;;;5023805;28;20595;-84
2021/03/16 10:00:53;;;;;;;2.53;1.10;;;8.70;51.20;;;;;;5030289;28;20223;-83
2021/03/16 10:03:20;;;;;;;1.57;1.33;;;8.60;50.10;;;;;;5027267;28;20216;-84
2021/03/16 10:05:47;;;;;;;1.80;1.47;;;8.60;51.10;;;;;;5037882;28;20198;-85
2021/03/16 10:08:27;;;;;;;2.10;1.40;;;8.70;50.90;;;;;;5022990;28;20233;-85
2021/03/16 10:10:56;;;;;;;2.63;1.20;;;8.80;51.00;;;;;;5026704;28;20241;-84
2021/03/16 10:13:29;;;;;;;1.70;1.60;;;8.90;49.10;;;;;;5039813;28;20215;-83
2021/03/16 10:15:56;;;;;;;3.93;1.53;;;8.90;49.00;;;;;;5024836;28;20262;-84
2021/03/16 10:18:24;;;;;;;2.70;1.60;;;8.70;49.30;;;;;;5034204;28;20195;-83
2021/03/16 10:20:51;;;;;;;1.90;1.20;;;8.70;49.30;;;;;;5024417;28;20198;-84
2021/03/16 10:23:24;;;;;;;2.70;1.43;;;8.70;49.30;;;;;;5039762;28;20215;-83
2021/03/16 10:25:58;;;;;;;2.50;1.70;;;8.70;49.90;;;;;;5034504;28;20279;-83
2021/03/16 10:28:31;;;;;;;4.30;1.87;;;8.60;48.90;;;;;;5022499;28;20214;-83
2021/03/16 10:31:18;;;;;;;3.33;1.53;;;8.60;50.30;;;;;;5027362;28;20222;-84
2021/03/16 10:33:45;;;;;;;3.70;2.17;;;8.60;49.50;;;;;;5040642;28;20666;-84
2021/03/16 10:36:11;;;;;;;3.90;2.87;;;8.50;49.70;;;;;;5038974;28;20269;-84
2021/03/16 10:38:37;;;;;;;7.03;2.70;;;8.50;50.40;;;;;;5033039;28;20234;-84
2021/03/16 10:41:03;;;;;;;5.57;3.17;;;8.50;50.30;;;;;;5041972;28;20247;-83
2021/03/16 10:43:29;;;;;;;5.10;3.17;;;8.50;50.80;;;;;;5027775;28;20228;-84
2021/03/16 10:45:56;;;;;;;4.23;2.90;;;8.70;51.40;;;;;;5025696;28;20191;-83
2021/03/16 10:48:23;;;;;;;5.40;3.50;;;8.80;50.50;;;;;;5040164;28;20251;-83
2021/03/16 10:50:49;;;;;;;8.37;4.27;;;8.70;51.10;;;;;;5041866;28;20181;-84
2021/03/16 10:53:16;;;;;;;6.70;2.70;;;8.60;51.10;;;;;;5024647;28;20242;-84
2021/03/16 10:55:42;;;;;;;3.30;1.87;;;8.80;51.80;;;;;;5037939;28;20276;-84
2021/03/16 10:58:08;;;;;;;3.07;2.10;;;9.00;51.20;;;;;;5038361;28;20226;-84
2021/03/16 11:00:34;;;;;;;4.73;2.27;;;8.70;51.20;;;;;;5032355;28;20278;-84
2021/03/16 11:03:01;;;;;;;1.50;1.33;;;8.70;50.90;;;;;;5041418;28;20585;-83
2021/03/16 11:05:27;;;;;;;1.73;1.30;;;8.80;51.50;;;;;;5026435;28;20223;-83
2021/03/16 11:07:52;;;;;;;2.73;1.77;;;8.90;50.20;;;;;;5022423;28;20231;-83
2021/03/16 11:10:18;;;;;;;4.23;2.27;;;9.00;48.30;;;;;;5036461;28;20288;-84
2021/03/16 11:12:44;;;;;;;3.87;2.13;;;9.20;47.90;;;;;;5023874;28;20302;-84
2021/03/16 11:15:10;;;;;;;1.90;1.70;;;9.50;46.80;;;;;;5036007;28;20202;-84
2021/03/16 11:17:36;;;;;;;2.37;1.80;;;9.80;46.20;;;;;;5021321;28;20224;-84
2021/03/16 11:20:04;;;;;;;3.23;1.83;;;9.60;45.60;;;;;;5021935;28;20301;-84
2021/03/16 11:22:30;;;;;;;1.87;1.73;;;9.70;45.50;;;;;;5019328;28;20220;-84
2021/03/16 11:24:55;;;;;;;3.00;1.70;;;9.70;44.80;;;;;;5038639;28;20270;-84
2021/03/16 11:27:21;;;;;;;3.60;1.87;;;9.70;44.20;;;;;;5019080;28;20180;-85
2021/03/16 11:29:47;;;;;;;1.23;1.10;;;9.70;44.30;;;;;;5021481;28;20208;-85
2021/03/16 11:32:13;;;;;;;2.40;1.97;;;9.80;44.40;;;;;;5028701;28;20202;-85
2021/03/16 11:34:38;;;;;;;2.87;1.10;;;9.80;45.10;;;;;;5022040;28;20203;-85
2021/03/16 11:37:04;;;;;;;1.43;0.87;;;9.90;43.00;;;;;;5022366;28;20190;-85
2021/03/16 11:39:31;;;;;;;1.80;1.10;;;9.80;42.70;;;;;;5021316;28;20268;-84
2021/03/16 11:41:57;;;;;;;1.70;1.33;;;9.80;42.60;;;;;;5022518;28;20180;-84
2021/03/16 11:44:23;;;;;;;2.80;1.40;;;9.80;43.30;;;;;;5038770;28;20200;-82
2021/03/16 11:46:50;;;;;;;1.67;1.40;;;9.60;42.70;;;;;;5030112;28;20255;-83
2021/03/16 11:49:16;;;;;;;5.93;1.70;;;9.60;44.00;;;;;;5028652;28;20230;-82
2021/03/16 11:51:42;;;;;;;2.00;1.70;;;9.70;43.90;;;;;;5024180;28;20627;-81
2021/03/16 11:54:08;;;;;;;1.60;1.33;;;9.80;44.80;;;;;;5038554;28;20206;-83
2021/03/16 11:56:33;;;;;;;3.27;2.00;;;10.00;43.70;;;;;;5026074;28;20220;-82
2021/03/16 11:58:59;;;;;;;3.03;1.90;;;10.00;44.50;;;;;;5045600;28;20230;-82
2021/03/16 12:01:25;;;;;;;1.70;1.50;;;10.80;44.10;;;;;;5027583;28;20220;-83
2021/03/16 12:03:50;;;;;;;2.57;1.00;;;11.40;41.20;;;;;;5042745;28;20243;-83
2021/03/16 12:06:16;;;;;;;1.93;1.47;;;11.20;42.40;;;;;;5026648;28;20255;-82
2021/03/16 12:08:42;;;;;;;4.00;1.70;;;11.70;40.80;;;;;;5024888;28;20237;-82
2021/03/16 12:11:08;;;;;;;0.90;0.90;;;12.00;40.20;;;;;;5027592;28;20223;-83
2021/03/16 12:13:33;;;;;;;1.77;1.00;;;13.00;38.20;;;;;;5043679;28;20232;-82
2021/03/16 12:15:59;;;;;;;3.93;1.77;;;13.80;37.40;;;;;;5022956;28;20561;-82
2021/03/16 12:18:26;;;;;;;2.50;1.60;;;14.50;36.20;;;;;;5021202;28;20639;-81
2021/03/16 12:20:52;;;;;;;3.13;1.20;;;15.20;36.00;;;;;;5030682;28;20207;-81
2021/03/16 12:23:18;;;;;;;2.60;1.43;;;13.90;35.50;;;;;;5041734;28;20400;-81
2021/03/16 12:25:45;;;;;;;4.30;1.77;;;12.60;36.90;;;;;;5025471;28;20268;-81
2021/03/16 12:28:11;;;;;;;1.57;1.47;;;13.40;38.60;;;;;;5029115;28;20227;-82
2021/03/16 12:30:37;;;;;;;2.07;1.50;;;13.70;36.20;;;;;;5024313;28;20230;-82
2021/03/16 12:33:04;;;;;;;1.70;1.20;;;13.60;34.40;;;;;;5035376;28;20190;-81
2021/03/16 12:35:29;;;;;;;1.90;1.20;;;14.20;32.30;;;;;;5028492;28;20723;-82
2021/03/16 12:37:55;;;;;;;2.57;1.63;;;14.40;31.80;;;;;;5041539;28;20205;-82
2021/03/16 12:40:21;;;;;;;2.07;1.57;;;14.40;32.80;;;;;;5042020;28;20300;-82
2021/03/16 12:42:48;;;;;;;1.80;1.70;;;15.00;32.60;;;;;;5023236;28;20286;-82
2021/03/16 12:45:14;;;;;;;2.03;1.30;;;14.90;32.50;;;;;;5021462;28;20199;-82
2021/03/16 12:47:40;;;;;;;3.33;1.20;;;13.10;32.70;;;;;;5042362;28;20249;-81
2021/03/16 12:50:07;;;;;;;1.10;1.03;;;12.50;33.70;;;;;;5032973;28;20233;-81
2021/03/16 12:52:32;;;;;;;1.83;1.27;;;12.50;34.40;;;;;;5043008;28;20196;-81
2021/03/16 12:54:58;;;;;;;1.57;1.03;;;12.10;35.10;;;;;;5026230;28;20276;-81
2021/03/16 12:57:24;;;;;;;0.97;0.80;;;11.60;35.40;;;;;;5042857;28;20193;-81
2021/03/16 12:59:50;;;;;;;2.27;1.63;;;11.00;36.70;;;;;;5042845;28;20184;-81
2021/03/16 13:02:16;;;;;;;0.97;0.90;;;10.70;37.40;;;;;;5038764;28;20238;-81